createdAt,value
2022-11-24T00:02:10.656Z,99545.28
2022-11-24T00:04:41.534Z,99544.04
2022-11-24T00:07:12.440Z,99545.56
2022-11-24T00:09:43.203Z,99539.23
2022-11-24T00:12:13.812Z,99537.17
2022-11-24T00:14:44.809Z,99537.30
2022-11-24T00:17:15.597Z,99533.63
2022-11-24T00:19:46.478Z,99538.59
2022-11-24T00:22:17.098Z,99543.02
2022-11-24T00:24:47.693Z,99546.05
2022-11-24T00:27:18.509Z,99546.55
2022-11-24T00:29:49.283Z,99550.47
2022-11-24T00:32:20.089Z,99552.61
2022-11-24T00:34:50.770Z,99556.04
2022-11-24T00:37:21.468Z,99555.45
2022-11-24T00:39:52.207Z,99557.52
2022-11-24T00:42:22.840Z,99559.25
2022-11-24T00:44:53.682Z,99556.48
2022-11-24T00:47:24.501Z,99556.59
2022-11-24T00:49:55.273Z,99559.84
2022-11-24T00:52:25.868Z,99561.48
2022-11-24T00:54:56.626Z,99566.05
2022-11-24T00:57:27.334Z,99566.23
2022-11-24T00:59:58.051Z,99568.80
2022-11-24T01:02:29.177Z,99568.85
2022-11-24T01:04:59.841Z,99569.19
2022-11-24T01:07:30.530Z,99574.20
2022-11-24T01:10:01.266Z,99574.89
2022-11-24T01:12:31.903Z,99579.62
2022-11-24T01:15:03.009Z,99581.05
2022-11-24T01:17:33.819Z,99585.61
2022-11-24T01:20:05.172Z,99588.73
2022-11-24T01:22:35.833Z,99590.69
2022-11-24T01:25:07.772Z,99590.25
2022-11-24T01:27:39.164Z,99591.98
2022-11-24T01:30:12.427Z,99601.44
2022-11-24T01:32:43.155Z,99602.41
2022-11-24T01:35:13.960Z,99609.83
2022-11-24T01:37:44.627Z,99611.73
2022-11-24T01:40:16.031Z,99612.64
2022-11-24T01:42:52.884Z,99609.10
2022-11-24T01:45:40.745Z,99611.11
2022-11-24T01:48:23.185Z,99615.80
2022-11-24T01:51:05.026Z,99614.66
2022-11-24T01:53:36.709Z,99614.42
2022-11-24T01:56:08.972Z,99617.77
2022-11-24T01:58:41.872Z,99622.15
2022-11-24T02:01:14.087Z,99622.16
2022-11-24T02:03:47.131Z,99622.61
2022-11-24T02:06:21.533Z,99621.70
2022-11-24T02:08:59.188Z,99621.27
2022-11-24T02:11:34.738Z,99622.77
2022-11-24T02:14:07.286Z,99620.30
2022-11-24T02:16:40.484Z,99619.96
2022-11-24T02:19:14.704Z,99623.15
2022-11-24T02:21:45.411Z,99626.40
2022-11-24T02:24:24.495Z,99625.05
2022-11-24T02:26:55.091Z,99631.45
2022-11-24T02:29:25.818Z,99631.83
2022-11-24T02:32:01.591Z,99631.98
2022-11-24T02:34:32.649Z,99633.72
2022-11-24T02:37:03.569Z,99635.98
2022-11-24T02:39:34.323Z,99635.88
2022-11-24T02:42:09.340Z,99640.79
2022-11-24T02:44:44.876Z,99639.02
2022-11-24T02:47:16.096Z,99638.94
2022-11-24T02:49:46.771Z,99644.74
2022-11-24T02:52:17.539Z,99645.14
2022-11-24T02:54:48.366Z,99643.73
2022-11-24T02:57:18.998Z,99643.00
2022-11-24T02:59:49.755Z,99646.60
2022-11-24T03:02:20.863Z,99645.16
2022-11-24T03:04:51.539Z,99646.26
2022-11-24T03:07:23.021Z,99647.88
2022-11-24T03:09:53.777Z,99651.85
2022-11-24T03:12:24.547Z,99653.13
2022-11-24T03:14:55.225Z,99650.52
2022-11-24T03:17:26.040Z,99646.48
2022-11-24T03:20:01.452Z,99650.33
2022-11-24T03:22:35.125Z,99651.15
2022-11-24T03:25:06.896Z,99652.09
2022-11-24T03:27:37.584Z,99651.34
2022-11-24T03:30:10.749Z,99653.05
2022-11-24T03:32:40.239Z,99654.61
2022-11-24T03:35:12.135Z,99656.36
2022-11-24T03:37:42.885Z,99658.95
2022-11-24T03:40:14.875Z,99663.44
2022-11-24T03:42:45.450Z,99669.09
2022-11-24T03:45:44.203Z,99664.40
2022-11-24T03:48:08.231Z,99663.02
2022-11-24T03:50:39.063Z,99664.63
2022-11-24T03:53:10.196Z,99666.50
2022-11-24T03:55:40.831Z,99678.31
2022-11-24T03:58:11.445Z,99681.41
2022-11-24T04:00:42.192Z,99681.55
2022-11-24T04:03:13.088Z,99682.05
2022-11-24T04:05:43.852Z,99681.36
2022-11-24T04:08:14.807Z,99682.00
2022-11-24T04:10:45.868Z,99687.38
2022-11-24T04:13:18.602Z,99692.65
2022-11-24T04:15:49.476Z,99688.73
2022-11-24T04:18:20.734Z,99692.77
2022-11-24T04:20:53.282Z,99693.29
2022-11-24T04:23:24.380Z,99692.70
2022-11-24T04:25:55.143Z,99693.55
2022-11-24T04:28:25.878Z,99697.49
2022-11-24T04:30:56.729Z,99701.89
2022-11-24T04:33:27.408Z,99691.38
2022-11-24T04:35:58.386Z,99704.48
2022-11-24T04:39:25.774Z,99710.45
2022-11-24T04:41:19.882Z,99713.48
2022-11-24T04:43:53.525Z,99717.52
2022-11-24T04:46:24.249Z,99720.93
2022-11-24T04:48:55.099Z,99724.05
2022-11-24T04:51:25.852Z,99729.84
2022-11-24T04:53:56.560Z,99726.40
2022-11-24T04:56:27.246Z,99729.42
2022-11-24T04:58:57.910Z,99733.55
2022-11-24T05:01:28.786Z,99736.15
2022-11-24T05:03:59.831Z,99736.56
2022-11-24T05:06:30.638Z,99742.80
2022-11-24T05:09:01.282Z,99746.09
2022-11-24T05:11:31.912Z,99752.53
2022-11-24T05:14:03.018Z,99748.20
2022-11-24T05:16:33.768Z,99754.02
2022-11-24T05:19:04.559Z,99760.39
2022-11-24T05:21:35.252Z,99759.25
2022-11-24T05:24:06.796Z,99759.41
2022-11-24T05:26:37.398Z,99766.20
2022-11-24T05:29:08.160Z,99771.27
2022-11-24T05:31:39.131Z,99771.84
2022-11-24T05:34:10.107Z,99770.78
2022-11-24T05:36:56.387Z,99775.27
2022-11-24T05:39:27.008Z,99775.34
2022-11-24T05:41:57.816Z,99782.98
2022-11-24T05:44:28.487Z,99780.70
2022-11-24T05:46:59.358Z,99778.96
2022-11-24T05:49:30.034Z,99773.77
2022-11-24T05:52:00.625Z,99774.93
2022-11-24T05:54:31.665Z,99779.28
2022-11-24T05:57:02.608Z,99783.85
2022-11-24T05:59:33.923Z,99787.09
2022-11-24T06:02:04.645Z,99787.96
2022-11-24T06:04:35.782Z,99793.02
2022-11-24T06:07:08.911Z,99798.23
2022-11-24T06:09:41.010Z,99801.16
2022-11-24T06:12:13.351Z,99803.05
2022-11-24T06:14:44.325Z,99807.90
2022-11-24T06:17:15.439Z,99812.76
2022-11-24T06:19:50.237Z,99820.38
2022-11-24T06:22:21.047Z,99825.63
2022-11-24T06:24:51.826Z,99821.80
2022-11-24T06:27:22.417Z,99824.55
2022-11-24T06:29:53.253Z,99827.08
2022-11-24T06:32:24.207Z,99825.71
2022-11-24T06:34:55.004Z,99827.21
2022-11-24T06:37:25.727Z,99830.23
2022-11-24T06:39:56.363Z,99828.08
2022-11-24T06:42:27.105Z,99835.30
2022-11-24T06:44:57.814Z,99840.27
2022-11-24T06:47:28.494Z,99838.95
2022-11-24T06:49:59.571Z,99844.98
2022-11-24T06:52:29.952Z,99847.15
2022-11-24T06:55:00.723Z,99848.52
2022-11-24T06:57:31.674Z,99847.95
2022-11-24T07:00:02.416Z,99850.42
2022-11-24T07:02:33.354Z,99851.77
2022-11-24T07:05:04.055Z,99851.73
2022-11-24T07:07:34.732Z,99849.11
2022-11-24T07:10:06.630Z,99859.80
2022-11-24T07:12:38.035Z,99868.59
2022-11-24T07:15:10.824Z,99867.34
2022-11-24T07:17:41.772Z,99867.14
2022-11-24T07:20:13.304Z,99867.22
2022-11-24T07:22:43.970Z,99871.78
2022-11-24T07:25:17.384Z,99871.81
2022-11-24T07:27:48.047Z,99870.79
2022-11-24T07:30:19.858Z,99871.14
2022-11-24T07:32:50.536Z,99872.48
2022-11-24T07:35:21.166Z,99876.01
2022-11-24T07:37:52.383Z,99876.98
2022-11-24T07:40:23.403Z,99877.58
2022-11-24T07:42:54.090Z,99879.45
2022-11-24T07:45:24.922Z,99888.13
2022-11-24T07:47:55.521Z,99892.48
2022-11-24T07:50:26.524Z,99901.77
2022-11-24T07:53:01.907Z,99902.69
2022-11-24T07:55:32.597Z,99900.96
2022-11-24T07:58:04.105Z,99897.34
2022-11-24T08:00:34.874Z,99897.77
2022-11-24T08:03:05.564Z,99895.01
2022-11-24T08:05:49.123Z,99902.01
2022-11-24T08:08:27.981Z,99900.52
2022-11-24T08:10:58.612Z,99900.95
2022-11-24T08:13:29.194Z,99898.53
2022-11-24T08:15:59.841Z,99900.19
2022-11-24T08:18:30.488Z,99899.70
2022-11-24T08:21:02.150Z,99901.34
2022-11-24T08:23:33.374Z,99899.66
2022-11-24T08:26:09.235Z,99898.06
2022-11-24T08:28:40.273Z,99899.43
2022-11-24T08:31:12.821Z,99898.16
2022-11-24T08:33:44.399Z,99902.41
2022-11-24T08:36:16.950Z,99903.00
2022-11-24T08:38:49.035Z,99905.12
2022-11-24T08:41:19.827Z,99908.55
2022-11-24T08:43:50.500Z,99905.27
2022-11-24T08:46:21.868Z,99905.14
2022-11-24T08:48:54.178Z,99908.70
2022-11-24T08:51:27.379Z,99913.13
2022-11-24T08:53:59.370Z,99914.83
2022-11-24T08:56:31.875Z,99911.08
2022-11-24T08:59:03.629Z,99912.58
2022-11-24T09:01:34.523Z,99911.33
2022-11-24T09:04:05.380Z,99908.19
2022-11-24T09:06:36.047Z,99910.50
2022-11-24T09:09:06.860Z,99911.05
2022-11-24T09:11:37.465Z,99914.14
2022-11-24T09:14:08.089Z,99919.83
2022-11-24T09:16:38.962Z,99924.36
2022-11-24T09:19:11.174Z,99925.48
2022-11-24T09:21:42.094Z,99925.14
2022-11-24T09:24:13.536Z,99926.33
2022-11-24T09:26:47.619Z,99929.42
2022-11-24T09:29:22.769Z,99928.23
2022-11-24T09:31:53.593Z,99931.98
2022-11-24T09:34:24.217Z,99928.49
2022-11-24T09:36:55.653Z,99928.08
2022-11-24T09:39:26.386Z,99929.44
2022-11-24T09:42:18.969Z,99930.04
2022-11-24T09:45:12.706Z,99931.76
2022-11-24T09:47:55.194Z,99922.45
2022-11-24T09:50:27.864Z,99921.73
2022-11-24T09:53:04.250Z,99928.89
2022-11-24T09:55:45.354Z,99925.71
2022-11-24T09:58:31.260Z,99927.87
2022-11-24T10:01:11.059Z,99933.42
2022-11-24T10:03:44.669Z,99933.50
2022-11-24T10:06:23.753Z,99934.85
2022-11-24T10:09:10.208Z,99937.22
2022-11-24T10:11:47.788Z,99936.09
2022-11-24T10:15:03.932Z,99934.00
2022-11-24T10:17:52.595Z,99933.91
2022-11-24T10:20:33.792Z,99937.85
2022-11-24T10:23:20.078Z,99937.61
2022-11-24T10:25:57.329Z,99936.07
2022-11-24T10:28:33.207Z,99937.67
2022-11-24T10:31:23.556Z,99935.52
2022-11-24T10:33:54.497Z,99937.96
2022-11-24T10:36:33.202Z,99941.30
2022-11-24T10:39:11.395Z,99939.10
2022-11-24T10:41:49.875Z,99935.38
2022-11-24T10:44:20.730Z,99931.89
2022-11-24T10:46:52.142Z,99938.08
2022-11-24T10:49:28.731Z,99938.54
2022-11-24T10:52:07.919Z,99933.88
2022-11-24T10:54:54.291Z,99938.70
2022-11-24T10:57:33.314Z,99939.11
2022-11-24T11:00:03.566Z,99940.77
2022-11-24T11:02:39.872Z,99936.70
2022-11-24T11:05:42.427Z,99938.41
2022-11-24T11:08:23.060Z,99939.23
2022-11-24T11:11:11.365Z,99930.23
2022-11-24T11:13:52.041Z,99931.98
2022-11-24T11:16:34.647Z,99933.77
2022-11-24T11:19:25.993Z,99934.11
2022-11-24T11:22:05.443Z,99932.30
2022-11-24T11:24:37.023Z,99932.37
2022-11-24T11:27:17.719Z,99936.04
2022-11-24T11:35:47.996Z,99926.88
2022-11-24T11:38:18.934Z,99927.88
2022-11-24T11:40:52.560Z,99922.33
2022-11-24T11:43:28.581Z,99926.15
2022-11-24T11:46:04.789Z,99927.81
2022-11-24T11:48:43.159Z,99932.52
2022-11-24T11:51:32.210Z,99931.95
2022-11-24T11:54:15.026Z,99935.40
2022-11-24T11:56:48.592Z,99938.30
2022-11-24T11:59:46.813Z,99938.83
2022-11-24T12:02:40.652Z,99940.57
2022-11-24T12:05:19.495Z,99945.34
2022-11-24T12:08:09.205Z,99950.78
2022-11-24T12:10:46.906Z,99949.52
2022-11-24T12:13:43.254Z,99949.70
2022-11-24T12:16:30.851Z,99944.54
2022-11-24T12:19:16.530Z,99919.00
2022-11-24T12:21:56.687Z,99946.48
2022-11-24T12:24:38.773Z,99949.09
2022-11-24T12:27:22.833Z,99946.44
2022-11-24T12:30:09.146Z,99950.38
2022-11-24T12:33:08.842Z,99952.09
2022-11-24T12:35:43.939Z,99949.95
2022-11-24T12:38:33.616Z,99952.42
2022-11-24T12:41:45.789Z,99954.30
2022-11-24T12:44:28.932Z,99950.83
2022-11-24T12:47:08.758Z,99951.87
2022-11-24T12:49:51.600Z,99953.55
2022-11-24T12:52:27.362Z,99961.80
2022-11-24T12:54:59.251Z,99962.52
2022-11-24T12:57:36.919Z,99965.13
2022-11-24T13:00:17.795Z,99967.30
2022-11-24T13:03:01.786Z,99970.18
2022-11-24T13:05:42.658Z,99966.95
2022-11-24T13:08:15.302Z,99965.58
2022-11-24T13:10:55.687Z,99965.57
2022-11-24T13:13:49.437Z,99966.80
2022-11-24T13:16:35.708Z,99969.05
2022-11-24T13:19:15.045Z,99972.05
2022-11-24T13:21:57.636Z,99969.58
2022-11-24T13:24:33.836Z,99969.90
2022-11-24T13:27:40.895Z,99970.19
2022-11-24T13:30:51.427Z,99973.10
2022-11-24T13:33:32.502Z,99977.34
2022-11-24T13:36:54.493Z,99976.20
2022-11-24T13:39:50.616Z,99975.49
2022-11-24T13:42:42.849Z,99981.98
2022-11-24T13:45:49.741Z,99981.40
2022-11-24T13:48:51.365Z,99991.08
2022-11-24T13:51:26.784Z,99994.04
2022-11-24T13:54:00.912Z,99994.14
2022-11-24T13:56:33.213Z,99995.67
2022-11-24T13:59:18.789Z,99992.81
2022-11-24T14:01:59.308Z,100000.84
2022-11-24T14:04:32.881Z,100002.40
2022-11-24T14:07:08.741Z,100004.73
2022-11-24T14:09:45.782Z,100007.91
2022-11-24T14:12:20.286Z,100011.89
2022-11-24T14:14:52.804Z,100014.92
2022-11-24T14:17:25.531Z,100018.38
2022-11-24T14:19:58.698Z,100019.45
2022-11-24T14:22:37.272Z,100020.65
2022-11-24T14:25:21.085Z,100027.16
2022-11-24T14:27:51.854Z,100028.20
2022-11-24T14:30:26.050Z,100026.77
2022-11-24T14:33:01.357Z,100026.77
2022-11-24T14:35:34.067Z,100027.54
2022-11-24T14:38:06.900Z,100029.91
2022-11-24T14:40:46.607Z,100032.13
2022-11-24T14:43:23.772Z,100037.70
2022-11-24T14:45:57.557Z,100042.70
2022-11-24T14:48:30.449Z,100044.96
2022-11-24T14:51:08.533Z,100051.19
2022-11-24T14:53:42.031Z,100054.29
2022-11-24T14:56:25.522Z,100056.89
2022-11-24T14:58:57.445Z,100063.05
2022-11-24T15:01:34.993Z,100065.75
2022-11-24T15:04:46.708Z,100068.77
2022-11-24T15:07:21.586Z,100076.34
2022-11-24T15:09:58.012Z,100080.02
2022-11-24T15:12:34.260Z,100074.77
2022-11-24T15:15:07.784Z,100078.62
2022-11-24T15:17:38.618Z,100078.28
2022-11-24T15:20:21.660Z,100080.69
2022-11-24T15:22:52.912Z,100088.56
2022-11-24T15:25:33.459Z,100089.84
2022-11-24T15:28:04.226Z,100087.95
2022-11-24T15:30:37.279Z,100093.88
2022-11-24T15:33:16.507Z,100094.50
2022-11-24T15:35:48.786Z,100099.93
2022-11-24T15:38:19.606Z,100103.45
2022-11-24T15:40:52.012Z,100106.57
2022-11-24T15:43:32.938Z,100107.14
2022-11-24T15:46:04.727Z,100101.75
2022-11-24T15:48:35.826Z,100107.42
2022-11-24T15:51:12.425Z,100110.09
2022-11-24T15:53:46.559Z,100111.44
2022-11-24T15:56:25.502Z,100116.69
2022-11-24T15:58:54.893Z,100120.79
2022-11-24T16:01:28.611Z,100122.77
2022-11-24T16:03:59.550Z,100121.58
2022-11-24T16:06:30.408Z,100123.09
2022-11-24T16:09:01.201Z,100120.13
2022-11-24T16:11:31.983Z,100119.29
2022-11-24T16:14:02.785Z,100124.02
2022-11-24T16:16:33.485Z,100128.58
2022-11-24T16:19:04.346Z,100126.46
2022-11-24T16:21:34.954Z,100129.53
2022-11-24T16:24:06.089Z,100136.45
2022-11-24T16:26:37.028Z,100144.68
2022-11-24T16:29:07.781Z,100150.27
2022-11-24T16:31:38.541Z,100149.36
2022-11-24T16:34:09.212Z,100148.71
2022-11-24T16:36:39.808Z,100150.75
2022-11-24T16:39:10.454Z,100156.52
2022-11-24T16:41:41.136Z,100155.70
2022-11-24T16:44:11.840Z,100157.33
2022-11-24T16:46:44.670Z,100156.05
2022-11-24T16:49:17.602Z,100156.84
2022-11-24T16:51:46.720Z,100158.14
2022-11-24T16:54:18.479Z,100157.96
2022-11-24T16:56:49.399Z,100161.11
2022-11-24T16:59:20.092Z,100160.96
2022-11-24T17:01:51.314Z,100166.45
2022-11-24T17:04:22.672Z,100169.27
2022-11-24T17:06:53.717Z,100175.21
2022-11-24T17:09:24.735Z,100174.91
2022-11-24T17:11:55.547Z,100171.66
2022-11-24T17:14:26.310Z,100172.96
2022-11-24T17:16:57.071Z,100172.23
2022-11-24T17:19:27.907Z,100177.52
2022-11-24T17:21:58.751Z,100178.00
2022-11-24T17:24:29.972Z,100179.70
2022-11-24T17:27:00.797Z,100182.70
2022-11-24T17:29:31.726Z,100184.54
2022-11-24T17:32:02.459Z,100187.42
2022-11-24T17:34:33.920Z,100189.61
2022-11-24T17:37:04.825Z,100190.55
2022-11-24T17:39:35.512Z,100191.95
2022-11-24T17:42:07.046Z,100189.51
2022-11-24T17:44:37.936Z,100192.98
2022-11-24T17:47:09.025Z,100191.82
2022-11-24T17:49:39.755Z,100197.35
2022-11-24T17:52:10.895Z,100201.61
2022-11-24T17:54:48.979Z,100202.81
2022-11-24T17:57:19.816Z,100206.58
2022-11-24T17:59:51.568Z,100212.55
2022-11-24T18:02:22.506Z,100214.18
2022-11-24T18:04:53.351Z,100211.77
2022-11-24T18:07:24.066Z,100206.61
2022-11-24T18:09:54.668Z,100210.30
2022-11-24T18:12:25.356Z,100212.39
2022-11-24T18:14:56.312Z,100216.09
2022-11-24T18:17:29.202Z,100216.06
2022-11-24T18:19:58.483Z,100220.44
2022-11-24T18:22:50.414Z,100226.36
2022-11-24T18:25:20.431Z,100229.23
2022-11-24T18:27:51.187Z,100229.10
2022-11-24T18:30:22.320Z,100235.19
2022-11-24T18:32:53.142Z,100233.77
2022-11-24T18:35:23.917Z,100232.13
2022-11-24T18:37:54.568Z,100233.55
2022-11-24T18:40:25.300Z,100236.26
2022-11-24T18:42:55.943Z,100239.65
2022-11-24T18:45:27.357Z,100243.90
2022-11-24T18:47:58.179Z,100242.29
2022-11-24T18:50:28.831Z,100243.34
2022-11-24T18:53:00.096Z,100240.02
2022-11-24T18:55:30.850Z,100232.14
2022-11-24T18:58:01.870Z,100237.53
2022-11-24T19:00:33.603Z,100238.33
2022-11-24T19:03:04.389Z,100243.32
2022-11-24T19:05:37.359Z,100239.94
2022-11-24T19:08:06.800Z,100239.54
2022-11-24T19:10:40.746Z,100235.70
2022-11-24T19:13:12.766Z,100236.87
2022-11-24T19:15:45.728Z,100227.98
2022-11-24T19:18:16.591Z,100237.50
2022-11-24T19:20:47.718Z,100238.95
2022-11-24T19:23:19.383Z,100241.11
2022-11-24T19:25:50.227Z,100249.04
2022-11-24T19:28:20.959Z,100251.66
2022-11-24T19:30:51.912Z,100250.81
2022-11-24T19:33:23.509Z,100256.02
2022-11-24T19:36:03.485Z,100259.98
2022-11-24T19:38:35.458Z,100263.80
2022-11-24T19:41:07.822Z,100263.19
2022-11-24T19:43:39.150Z,100260.69
2022-11-24T19:46:12.651Z,100261.70
2022-11-24T19:48:45.278Z,100254.50
2022-11-24T19:51:17.439Z,100261.52
2022-11-24T19:53:48.485Z,100264.55
2022-11-24T19:56:21.244Z,100265.30
2022-11-24T19:58:53.181Z,100269.06
2022-11-24T20:01:26.567Z,100271.77
2022-11-24T20:04:00.137Z,100273.16
2022-11-24T20:06:32.410Z,100275.99
2022-11-24T20:09:04.153Z,100277.03
2022-11-24T20:11:35.087Z,100279.74
2022-11-24T20:14:06.731Z,100281.67
2022-11-24T20:16:37.889Z,100283.09
2022-11-24T20:19:11.825Z,100287.01
2022-11-24T20:21:46.194Z,100289.46
2022-11-24T20:24:18.640Z,100293.31
2022-11-24T20:26:51.426Z,100297.91
2022-11-24T20:29:22.602Z,100298.48
2022-11-24T20:31:54.805Z,100298.55
2022-11-24T20:34:26.330Z,100304.75
2022-11-24T20:36:57.023Z,100304.39
2022-11-24T20:39:28.828Z,100307.23
2022-11-24T20:41:59.454Z,100309.70
2022-11-24T20:44:30.407Z,100311.05
2022-11-24T20:47:02.904Z,100312.98
2022-11-24T20:49:33.822Z,100311.58
2022-11-24T20:52:04.718Z,100316.55
2022-11-24T20:54:35.550Z,100314.98
2022-11-24T20:57:06.495Z,100316.04
2022-11-24T20:59:37.425Z,100319.39
2022-11-24T21:02:08.322Z,100320.83
2022-11-24T21:04:39.298Z,100315.84
2022-11-24T21:07:13.491Z,100323.21
2022-11-24T21:09:44.306Z,100322.70
2022-11-24T21:12:15.086Z,100324.22
2022-11-24T21:14:45.717Z,100325.44
2022-11-24T21:17:16.590Z,100327.19
2022-11-24T21:19:47.530Z,100335.00
2022-11-24T21:22:18.327Z,100334.31
2022-11-24T21:24:49.012Z,100337.85
2022-11-24T21:27:19.689Z,100338.35
2022-11-24T21:29:50.354Z,100338.51
2022-11-24T21:32:20.996Z,100337.91
2022-11-24T21:34:51.597Z,100343.30
2022-11-24T21:37:22.218Z,100338.83
2022-11-24T21:39:53.129Z,100334.63
2022-11-24T21:42:24.041Z,100336.41
2022-11-24T21:44:54.824Z,100339.98
2022-11-24T21:47:26.412Z,100338.48
2022-11-24T21:49:57.264Z,100319.34
2022-11-24T21:52:28.033Z,100342.69
2022-11-24T21:54:58.582Z,100342.02
2022-11-24T21:57:31.188Z,100349.77
2022-11-24T22:00:01.900Z,100353.73
2022-11-24T22:02:52.563Z,100355.61
2022-11-24T22:05:25.129Z,100353.98
2022-11-24T22:07:55.998Z,100352.83
2022-11-24T22:10:26.795Z,100359.01
2022-11-24T22:12:57.515Z,100358.13
2022-11-24T22:15:28.281Z,100359.25
2022-11-24T22:17:58.958Z,100356.68
2022-11-24T22:20:29.685Z,100359.15
2022-11-24T22:23:00.435Z,100356.70
2022-11-24T22:25:31.100Z,100355.90
2022-11-24T22:28:01.857Z,100356.92
2022-11-24T22:30:32.721Z,100362.79
2022-11-24T22:33:03.533Z,100365.89
2022-11-24T22:35:34.282Z,100364.11
2022-11-24T22:38:04.960Z,100362.23
2022-11-24T22:40:35.704Z,100365.02
2022-11-24T22:43:06.489Z,100367.15
2022-11-24T22:45:37.976Z,100368.96
2022-11-24T22:48:09.200Z,100370.09
2022-11-24T22:50:39.846Z,100372.20
2022-11-24T22:53:10.612Z,100374.40
2022-11-24T22:55:41.410Z,100377.01
2022-11-24T22:58:11.989Z,100377.08
2022-11-24T23:00:42.670Z,100382.73
2022-11-24T23:03:13.556Z,100382.85
2022-11-24T23:05:44.368Z,100388.70
2022-11-24T23:08:15.115Z,100386.24
2022-11-24T23:10:45.848Z,100389.05
2022-11-24T23:13:16.415Z,100390.98
2022-11-24T23:15:47.065Z,100393.72
2022-11-24T23:18:17.774Z,100394.88
2022-11-24T23:20:48.461Z,100399.15
2022-11-24T23:23:19.027Z,100401.88
2022-11-24T23:25:49.682Z,100400.20
2022-11-24T23:28:20.410Z,100395.71
2022-11-24T23:30:50.990Z,100390.27
2022-11-24T23:33:21.600Z,100390.10
2022-11-24T23:35:52.117Z,100394.36
2022-11-24T23:38:22.749Z,100397.30
2022-11-24T23:40:55.922Z,100394.73
2022-11-24T23:43:26.658Z,100395.67
2022-11-24T23:46:01.754Z,100395.08
2022-11-24T23:48:32.465Z,100397.76
2022-11-24T23:51:08.671Z,100399.08
2022-11-24T23:53:39.735Z,100395.14
2022-11-24T23:56:12.679Z,100397.42
2022-11-24T23:58:41.880Z,100399.25
